METAR Data
IDs: Format: Raw Decoded Include TAF

Data at: 0739 UTC 28 Sep 2022

METAR for:KRCV (Del Norte Muni, CO, US)
Text:KRCV 280715Z AUTO 27004KT 10SM SCT100 OVC120 10/04 A3054 RMK AO2 T01020036
Temperature: 10.2°C ( 50°F)
Dewpoint: 3.6°C ( 38°F) [RH = 64%]
Pressure (altimeter):30.54 inches Hg (1034.3 mb)
Winds:from the W (270 degrees) at 5 MPH (4 knots; 2.1 m/s)
Visibility:10 or more sm (16+ km)
Ceiling:12000 feet AGL
Clouds: scattered clouds at 10000 feet AGL, overcast cloud deck at 12000 feet AGL
QC Flag:automated observation with no human augmentation